Ekin-s — TCMW3 — position and weather

sailwx.info

Track history (hours):
 
Tides and Currents Weather Stations Pressure Air Temp Water Temp Dewpoint Dewpoint Depression Visibility Wind Speed Wind Dir Waves Ship Positions

Ekin-s

Last reported at 2014-Nov-01 00:17 UTC. Time now 2014-Nov-01 13:24 UTC.
Position N 40°57' E 028°52'.

Length 109 m; draft 5 m.

Type: Ship. MMSI: 271042836.

Date/timePositionNaut miles runAvg speedWind from/ knotsBaromVisibWave heightAir tempDewpointWater temp
2014-Nov-01 00:17N 40°57' E 028°52'1 0.1
2014-Oct-31 20:28N 40°56' E 028°52'1111.1
2014-Oct-31 19:31N 40°46' E 028°48'1212.1
2014-Oct-31 18:32N 40°34' E 028°45'1411.5
2014-Oct-31 17:17N 40°26' E 028°60'4 5.2
2014-Oct-31 16:34N 40°25' E 029°04'0 0.0
2014-Oct-31 12:27N 40°25' E 029°04'0 0.0
2014-Oct-31 11:05N 40°25' E 029°04'0 0.0
2014-Oct-31 10:34N 40°25' E 029°04'0 0.0
2014-Oct-31 09:33N 40°25' E 029°04'0 0.0
2014-Oct-31 08:34N 40°25' E 029°04'0 0.0
2014-Oct-31 07:32N 40°25' E 029°04'0 0.0
2014-Oct-31 06:20N 40°25' E 029°04'0 0.0
2014-Oct-31 05:33N 40°25' E 029°04'0 0.0
2014-Oct-31 04:34N 40°25' E 029°04'0 0.0
2014-Oct-31 03:33N 40°25' E 029°04'0 0.0
2014-Oct-31 02:19N 40°25' E 029°04'0 0.0
2014-Oct-31 01:33N 40°25' E 029°04'0 0.0
2014-Oct-31 00:29N 40°25' E 029°04'0 0.0
2014-Oct-30 22:34N 40°25' E 029°04'0 0.0
2014-Oct-30 21:12N 40°25' E 029°04'0 0.0
2014-Oct-30 20:31N 40°25' E 029°04'0 0.0
2014-Oct-30 18:13N 40°25' E 029°04'0 0.0
2014-Oct-30 14:20N 40°25' E 029°04'0 0.0
2014-Oct-30 13:34N 40°25' E 029°04'0 0.0
2014-Oct-30 12:33N 40°25' E 029°04'1 0.6
2014-Oct-30 11:33N 40°25' E 029°04'18 8.4
2014-Oct-30 09:25N 40°38' E 028°48'1113.1
2014-Oct-30 08:33N 40°48' E 028°56'9 9.2
2014-Oct-30 07:32N 40°57' E 028°53'0 0.0
2014-Oct-30 02:25N 40°57' E 028°53'0 0.0
2014-Oct-30 01:25N 40°57' E 028°53'0 0.0
2014-Oct-30 00:25N 40°57' E 028°53'0 0.1
2014-Oct-29 21:27N 40°57' E 028°53'2110.1
2014-Oct-29 19:22N 41°15' E 029°08'  
2014-Oct-26 18:16N 46°32' E 030°58'1 0.0
2014-Oct-26 05:27N 46°32' E 030°58'  
2014-Oct-24 01:25N 46°32' E 030°58'  
Track history (hours):
 
Tides and Currents Weather Stations Pressure Air Temp Water Temp Dewpoint Dewpoint Depression Visibility Wind Speed Wind Dir Waves Ship Positions

Ekin-s

Last reported at 2014-Nov-01 00:17 UTC. Time now 2014-Nov-01 13:24 UTC.
Position N 40°57' E 028°52'.

Length 109 m; draft 5 m.

Type: Ship. MMSI: 271042836.

Date/timePositionNaut miles runAvg speedWind from/ knotsBaromVisibWave heightAir tempDewpointWater temp
2014-Nov-01 00:17N 40°57' E 028°52'1 0.1
2014-Oct-31 20:28N 40°56' E 028°52'1111.1
2014-Oct-31 19:31N 40°46' E 028°48'1212.1
2014-Oct-31 18:32N 40°34' E 028°45'1411.5
2014-Oct-31 17:17N 40°26' E 028°60'4 5.2
2014-Oct-31 16:34N 40°25' E 029°04'0 0.0
2014-Oct-31 12:27N 40°25' E 029°04'0 0.0
2014-Oct-31 11:05N 40°25' E 029°04'0 0.0
2014-Oct-31 10:34N 40°25' E 029°04'0 0.0
2014-Oct-31 09:33N 40°25' E 029°04'0 0.0
2014-Oct-31 08:34N 40°25' E 029°04'0 0.0
2014-Oct-31 07:32N 40°25' E 029°04'0 0.0
2014-Oct-31 06:20N 40°25' E 029°04'0 0.0
2014-Oct-31 05:33N 40°25' E 029°04'0 0.0
2014-Oct-31 04:34N 40°25' E 029°04'0 0.0
2014-Oct-31 03:33N 40°25' E 029°04'0 0.0
2014-Oct-31 02:19N 40°25' E 029°04'0 0.0
2014-Oct-31 01:33N 40°25' E 029°04'0 0.0
2014-Oct-31 00:29N 40°25' E 029°04'0 0.0
2014-Oct-30 22:34N 40°25' E 029°04'0 0.0
2014-Oct-30 21:12N 40°25' E 029°04'0 0.0
2014-Oct-30 20:31N 40°25' E 029°04'0 0.0
2014-Oct-30 18:13N 40°25' E 029°04'0 0.0
2014-Oct-30 14:20N 40°25' E 029°04'0 0.0
2014-Oct-30 13:34N 40°25' E 029°04'0 0.0
2014-Oct-30 12:33N 40°25' E 029°04'1 0.6
2014-Oct-30 11:33N 40°25' E 029°04'18 8.4
2014-Oct-30 09:25N 40°38' E 028°48'1113.1
2014-Oct-30 08:33N 40°48' E 028°56'9 9.2
2014-Oct-30 07:32N 40°57' E 028°53'0 0.0
2014-Oct-30 02:25N 40°57' E 028°53'0 0.0
2014-Oct-30 01:25N 40°57' E 028°53'0 0.0
2014-Oct-30 00:25N 40°57' E 028°53'0 0.1
2014-Oct-29 21:27N 40°57' E 028°53'2110.1
2014-Oct-29 19:22N 41°15' E 029°08'  
2014-Oct-26 18:16N 46°32' E 030°58'1 0.0
2014-Oct-26 05:27N 46°32' E 030°58'  
2014-Oct-24 01:25N 46°32' E 030°58'  

Dump ship's entire track history